sensor_id;sensor_type;location;lat;lon;timestamp;pressure;altitude;pressure_sealevel;temperature;humidity
66627;BME280;53498;50.422;14.912;2023-02-22T00:01:23;99073.31;;;8.58;96.36
66627;BME280;53498;50.422;14.912;2023-02-22T00:04:02;99078.50;;;8.58;97.36
66627;BME280;53498;50.422;14.912;2023-02-22T00:06:28;99068.16;;;8.62;97.43
66627;BME280;53498;50.422;14.912;2023-02-22T00:08:56;99071.66;;;8.62;97.40
66627;BME280;53498;50.422;14.912;2023-02-22T00:11:21;99075.09;;;8.60;96.44
66627;BME280;53498;50.422;14.912;2023-02-22T00:13:47;99075.09;;;8.64;95.58
66627;BME280;53498;50.422;14.912;2023-02-22T00:16:24;99071.63;;;8.61;95.50
66627;BME280;53498;50.422;14.912;2023-02-22T00:18:50;99073.31;;;8.52;96.74
66627;BME280;53498;50.422;14.912;2023-02-22T00:21:16;99081.06;;;8.49;97.05
66627;BME280;53498;50.422;14.912;2023-02-22T00:23:45;99080.09;;;8.41;98.60
66627;BME280;53498;50.422;14.912;2023-02-22T00:26:15;99077.50;;;8.38;97.65
66627;BME280;53498;50.422;14.912;2023-02-22T00:28:48;99075.81;;;8.43;96.10
66627;BME280;53498;50.422;14.912;2023-02-22T00:31:14;99068.91;;;8.44;95.79
66627;BME280;53498;50.422;14.912;2023-02-22T00:33:40;99066.06;;;8.21;98.36
66627;BME280;53498;50.422;14.912;2023-02-22T00:36:07;99068.56;;;8.10;99.47
66627;BME280;53498;50.422;14.912;2023-02-22T00:38:34;99071.84;;;7.95;100.00
66627;BME280;53498;50.422;14.912;2023-02-22T00:40:59;99072.72;;;7.94;100.00
66627;BME280;53498;50.422;14.912;2023-02-22T00:43:25;99066.63;;;7.91;100.00
66627;BME280;53498;50.422;14.912;2023-02-22T00:45:51;99062.31;;;7.93;100.00
66627;BME280;53498;50.422;14.912;2023-02-22T00:48:18;99071.78;;;7.89;100.00
66627;BME280;53498;50.422;14.912;2023-02-22T00:50:44;99057.88;;;7.78;100.00
66627;BME280;53498;50.422;14.912;2023-02-22T00:53:13;99065.50;;;7.65;100.00
66627;BME280;53498;50.422;14.912;2023-02-22T00:55:39;99055.94;;;7.58;100.00
66627;BME280;53498;50.422;14.912;2023-02-22T00:58:05;99064.44;;;7.51;100.00
66627;BME280;53498;50.422;14.912;2023-02-22T01:00:37;99064.53;;;7.57;100.00
66627;BME280;53498;50.422;14.912;2023-02-22T01:03:05;99071.28;;;7.45;100.00
66627;BME280;53498;50.422;14.912;2023-02-22T01:05:31;99056.59;;;7.45;100.00
66627;BME280;53498;50.422;14.912;2023-02-22T01:07:59;99058.31;;;7.43;100.00
66627;BME280;53498;50.422;14.912;2023-02-22T01:10:26;99057.44;;;7.42;100.00
66627;BME280;53498;50.422;14.912;2023-02-22T01:12:53;99052.22;;;7.38;100.00
66627;BME280;53498;50.422;14.912;2023-02-22T01:15:21;99052.22;;;7.39;100.00
66627;BME280;53498;50.422;14.912;2023-02-22T01:17:48;99050.53;;;7.40;100.00
66627;BME280;53498;50.422;14.912;2023-02-22T01:20:14;99060.00;;;7.41;100.00
66627;BME280;53498;50.422;14.912;2023-02-22T01:22:42;99048.69;;;7.31;100.00
66627;BME280;53498;50.422;14.912;2023-02-22T01:25:09;99048.69;;;7.31;100.00
66627;BME280;53498;50.422;14.912;2023-02-22T01:27:36;99053.91;;;7.34;100.00
66627;BME280;53498;50.422;14.912;2023-02-22T01:30:04;99052.91;;;7.25;100.00
66627;BME280;53498;50.422;14.912;2023-02-22T01:32:36;99057.16;;;7.18;100.00
66627;BME280;53498;50.422;14.912;2023-02-22T01:35:08;99058.78;;;7.11;100.00
66627;BME280;53498;50.422;14.912;2023-02-22T01:37:34;99053.66;;;7.16;100.00
66627;BME280;53498;50.422;14.912;2023-02-22T01:40:00;99064.88;;;7.16;100.00
66627;BME280;53498;50.422;14.912;2023-02-22T01:42:26;99062.25;;;7.13;100.00
66627;BME280;53498;50.422;14.912;2023-02-22T01:48:07;99061.28;;;7.07;100.00
66627;BME280;53498;50.422;14.912;2023-02-22T01:50:38;99062.91;;;7.00;100.00
66627;BME280;53498;50.422;14.912;2023-02-22T01:53:09;99066.16;;;6.84;100.00
66627;BME280;53498;50.422;14.912;2023-02-22T01:55:36;99067.81;;;6.80;100.00
66627;BME280;53498;50.422;14.912;2023-02-22T01:58:04;99064.19;;;6.70;100.00
66627;BME280;53498;50.422;14.912;2023-02-22T02:00:31;99058.91;;;6.63;100.00
66627;BME280;53498;50.422;14.912;2023-02-22T02:03:01;99064.03;;;6.60;100.00
66627;BME280;53498;50.422;14.912;2023-02-22T02:05:28;99056.34;;;6.63;100.00
66627;BME280;53498;50.422;14.912;2023-02-22T02:07:56;99061.66;;;6.73;100.00
66627;BME280;53498;50.422;14.912;2023-02-22T02:10:22;99065.19;;;6.77;100.00
66627;BME280;53498;50.422;14.912;2023-02-22T02:12:49;99058.16;;;6.70;100.00
66627;BME280;53498;50.422;14.912;2023-02-22T02:15:22;99057.09;;;6.57;100.00
66627;BME280;53498;50.422;14.912;2023-02-22T02:17:49;99062.03;;;6.42;100.00
66627;BME280;53498;50.422;14.912;2023-02-22T02:33:51;99063.88;;;6.49;100.00
66627;BME280;53498;50.422;14.912;2023-02-22T02:39:29;99050.22;;;6.58;100.00
66627;BME280;53498;50.422;14.912;2023-02-22T02:41:59;99056.31;;;6.61;100.00
66627;BME280;53498;50.422;14.912;2023-02-22T02:44:43;99058.13;;;6.67;100.00
66627;BME280;53498;50.422;14.912;2023-02-22T02:47:25;99056.44;;;6.70;100.00
66627;BME280;53498;50.422;14.912;2023-02-22T02:49:57;99052.22;;;6.74;100.00
66627;BME280;53498;50.422;14.912;2023-02-22T02:52:26;99056.47;;;6.72;100.00
66627;BME280;53498;50.422;14.912;2023-02-22T02:54:53;99049.59;;;6.72;100.00
66627;BME280;53498;50.422;14.912;2023-02-22T02:57:20;99041.09;;;6.83;100.00
66627;BME280;53498;50.422;14.912;2023-02-22T02:59:46;99049.00;;;6.92;100.00
66627;BME280;53498;50.422;14.912;2023-02-22T03:02:23;99045.59;;;6.93;100.00
66627;BME280;53498;50.422;14.912;2023-02-22T03:08:33;99042.31;;;7.06;100.00
66627;BME280;53498;50.422;14.912;2023-02-22T03:11:18;99040.47;;;6.98;100.00
66627;BME280;53498;50.422;14.912;2023-02-22T03:18:53;99044.69;;;6.91;100.00
66627;BME280;53498;50.422;14.912;2023-02-22T03:21:30;99037.75;;;6.88;100.00
66627;BME280;53498;50.422;14.912;2023-02-22T03:24:05;99032.47;;;6.81;100.00
66627;BME280;53498;50.422;14.912;2023-02-22T03:26:53;99030.94;;;6.95;100.00
66627;BME280;53498;50.422;14.912;2023-02-22T03:29:22;99030.16;;;6.99;100.00
66627;BME280;53498;50.422;14.912;2023-02-22T03:31:54;99032.75;;;7.01;100.00
66627;BME280;53498;50.422;14.912;2023-02-22T03:34:34;99033.69;;;7.06;100.00
66627;BME280;53498;50.422;14.912;2023-02-22T03:37:06;99026.84;;;7.09;100.00
66627;BME280;53498;50.422;14.912;2023-02-22T03:39:35;99038.91;;;7.10;100.00
66627;BME280;53498;50.422;14.912;2023-02-22T03:42:12;99028.53;;;7.06;100.00
66627;BME280;53498;50.422;14.912;2023-02-22T03:44:39;99033.78;;;7.13;100.00
66627;BME280;53498;50.422;14.912;2023-02-22T03:47:10;99037.28;;;7.15;100.00
66627;BME280;53498;50.422;14.912;2023-02-22T03:49:54;99039.78;;;7.11;100.00
66627;BME280;53498;50.422;14.912;2023-02-22T03:52:22;99032.84;;;7.05;100.00
66627;BME280;53498;50.422;14.912;2023-02-22T03:54:49;99038.00;;;7.05;100.00
66627;BME280;53498;50.422;14.912;2023-02-22T03:57:36;99037.97;;;7.04;100.00
66627;BME280;53498;50.422;14.912;2023-02-22T04:00:07;99038.75;;;6.98;100.00
66627;BME280;53498;50.422;14.912;2023-02-22T04:02:35;99040.50;;;6.99;100.00
66627;BME280;53498;50.422;14.912;2023-02-22T04:05:02;99034.44;;;6.97;100.00
66627;BME280;53498;50.422;14.912;2023-02-22T04:07:27;99032.66;;;6.93;100.00
66627;BME280;53498;50.422;14.912;2023-02-22T04:09:53;99029.13;;;6.88;100.00
66627;BME280;53498;50.422;14.912;2023-02-22T04:12:18;99030.78;;;6.83;100.00
66627;BME280;53498;50.422;14.912;2023-02-22T04:14:44;99034.97;;;6.75;100.00
66627;BME280;53498;50.422;14.912;2023-02-22T04:17:10;99032.22;;;6.62;100.00
66627;BME280;53498;50.422;14.912;2023-02-22T04:19:35;99036.38;;;6.54;100.00
66627;BME280;53498;50.422;14.912;2023-02-22T04:22:01;99032.81;;;6.46;100.00
66627;BME280;53498;50.422;14.912;2023-02-22T04:24:26;99034.50;;;6.45;100.00
66627;BME280;53498;50.422;14.912;2023-02-22T04:26:52;99040.53;;;6.43;100.00
66627;BME280;53498;50.422;14.912;2023-02-22T04:29:19;99034.50;;;6.44;100.00
66627;BME280;53498;50.422;14.912;2023-02-22T04:31:45;99035.97;;;6.28;100.00
66627;BME280;53498;50.422;14.912;2023-02-22T04:34:11;99031.66;;;6.29;100.00
66627;BME280;53498;50.422;14.912;2023-02-22T04:36:36;99034.19;;;6.25;100.00
66627;BME280;53498;50.422;14.912;2023-02-22T04:39:02;99023.81;;;6.21;100.00
66627;BME280;53498;50.422;14.912;2023-02-22T04:41:28;99033.16;;;6.14;100.00
66627;BME280;53498;50.422;14.912;2023-02-22T04:43:59;99029.59;;;6.08;100.00
66627;BME280;53498;50.422;14.912;2023-02-22T04:46:25;99024.25;;;5.97;100.00
66627;BME280;53498;50.422;14.912;2023-02-22T04:48:51;99025.09;;;5.96;100.00
66627;BME280;53498;50.422;14.912;2023-02-22T04:51:17;99022.31;;;5.87;100.00
66627;BME280;53498;50.422;14.912;2023-02-22T04:53:44;99024.84;;;5.84;100.00
66627;BME280;53498;50.422;14.912;2023-02-22T04:56:10;99028.19;;;5.79;100.00
66627;BME280;53498;50.422;14.912;2023-02-22T04:58:36;99028.97;;;5.75;100.00
66627;BME280;53498;50.422;14.912;2023-02-22T05:01:02;99028.13;;;5.75;100.00
66627;BME280;53498;50.422;14.912;2023-02-22T05:03:28;99016.75;;;5.65;100.00
66627;BME280;53498;50.422;14.912;2023-02-22T05:05:53;99021.19;;;5.72;100.00
66627;BME280;53498;50.422;14.912;2023-02-22T05:08:19;99016.75;;;5.65;100.00
66627;BME280;53498;50.422;14.912;2023-02-22T05:10:44;99010.56;;;5.57;100.00
66627;BME280;53498;50.422;14.912;2023-02-22T05:13:10;99013.94;;;5.53;100.00
66627;BME280;53498;50.422;14.912;2023-02-22T05:15:36;99020.78;;;5.51;100.00
66627;BME280;53498;50.422;14.912;2023-02-22T05:18:02;99018.97;;;5.47;100.00
66627;BME280;53498;50.422;14.912;2023-02-22T05:20:33;99016.28;;;5.39;100.00
66627;BME280;53498;50.422;14.912;2023-02-22T05:23:00;99015.25;;;5.32;100.00
66627;BME280;53498;50.422;14.912;2023-02-22T05:25:26;99014.06;;;5.17;100.00
66627;BME280;53498;50.422;14.912;2023-02-22T05:27:59;99019.09;;;5.09;100.00
66627;BME280;53498;50.422;14.912;2023-02-22T05:30:28;99013.19;;;5.16;100.00
66627;BME280;53498;50.422;14.912;2023-02-22T05:32:54;99016.63;;;5.15;100.00
66627;BME280;53498;50.422;14.912;2023-02-22T05:35:21;99009.69;;;5.13;100.00
66627;BME280;53498;50.422;14.912;2023-02-22T05:37:48;99014.78;;;5.08;100.00
66627;BME280;53498;50.422;14.912;2023-02-22T05:40:19;99019.81;;;5.02;100.00
66627;BME280;53498;50.422;14.912;2023-02-22T05:42:47;99016.97;;;4.90;100.00
66627;BME280;53498;50.422;14.912;2023-02-22T05:45:15;99014.31;;;4.88;100.00
66627;BME280;53498;50.422;14.912;2023-02-22T05:47:42;99016.03;;;4.87;100.00
66627;BME280;53498;50.422;14.912;2023-02-22T05:50:08;99006.66;;;4.90;100.00
66627;BME280;53498;50.422;14.912;2023-02-22T05:52:35;99012.69;;;4.92;100.00
66627;BME280;53498;50.422;14.912;2023-02-22T05:55:01;99014.38;;;4.90;100.00
66627;BME280;53498;50.422;14.912;2023-02-22T05:57:26;99015.19;;;4.88;100.00
66627;BME280;53498;50.422;14.912;2023-02-22T05:59:52;99022.19;;;4.94;100.00
66627;BME280;53498;50.422;14.912;2023-02-22T06:02:17;99024.69;;;4.90;100.00
66627;BME280;53498;50.422;14.912;2023-02-22T06:04:44;99023.84;;;4.91;100.00
66627;BME280;53498;50.422;14.912;2023-02-22T06:07:10;99026.53;;;4.95;100.00
66627;BME280;53498;50.422;14.912;2023-02-22T06:09:36;99023.19;;;5.01;100.00
66627;BME280;53498;50.422;14.912;2023-02-22T06:12:02;99033.63;;;5.07;100.00
66627;BME280;53498;50.422;14.912;2023-02-22T06:14:28;99032.81;;;5.08;100.00
66627;BME280;53498;50.422;14.912;2023-02-22T06:16:55;99036.41;;;5.15;100.00
66627;BME280;53498;50.422;14.912;2023-02-22T06:19:21;99031.19;;;5.13;100.00
66627;BME280;53498;50.422;14.912;2023-02-22T06:21:51;99032.09;;;5.15;100.00
66627;BME280;53498;50.422;14.912;2023-02-22T06:24:17;99034.75;;;5.20;100.00
66627;BME280;53498;50.422;14.912;2023-02-22T06:26:43;99032.84;;;5.09;100.00
66627;BME280;53498;50.422;14.912;2023-02-22T06:29:09;99043.34;;;5.17;100.00
66627;BME280;53498;50.422;14.912;2023-02-22T06:31:34;99033.16;;;5.23;100.00
66627;BME280;53498;50.422;14.912;2023-02-22T06:34:02;99038.38;;;5.28;100.00
66627;BME280;53498;50.422;14.912;2023-02-22T06:36:28;99039.41;;;5.36;100.00
66627;BME280;53498;50.422;14.912;2023-02-22T06:38:56;99043.00;;;5.43;100.00
66627;BME280;53498;50.422;14.912;2023-02-22T06:41:22;99043.19;;;5.52;100.00
66627;BME280;53498;50.422;14.912;2023-02-22T06:43:48;99045.84;;;5.56;100.00
66627;BME280;53498;50.422;14.912;2023-02-22T06:46:14;99046.25;;;5.36;100.00
66627;BME280;53498;50.422;14.912;2023-02-22T06:48:40;99052.41;;;5.41;100.00
66627;BME280;53498;50.422;14.912;2023-02-22T06:51:08;99067.16;;;5.48;100.00
66627;BME280;53498;50.422;14.912;2023-02-22T06:53:34;99058.28;;;5.33;100.00
66627;BME280;53498;50.422;14.912;2023-02-22T06:56:01;99061.91;;;5.43;100.00
66627;BME280;53498;50.422;14.912;2023-02-22T06:58:27;99061.00;;;5.41;100.00
66627;BME280;53498;50.422;14.912;2023-02-22T07:00:53;99065.34;;;5.44;100.00
66627;BME280;53498;50.422;14.912;2023-02-22T07:03:19;99066.66;;;5.64;100.00
66627;BME280;53498;50.422;14.912;2023-02-22T07:05:45;99065.09;;;5.74;100.00
66627;BME280;53498;50.422;14.912;2023-02-22T07:08:11;99063.41;;;5.76;100.00
66627;BME280;53498;50.422;14.912;2023-02-22T07:10:38;99072.00;;;5.76;100.00
66627;BME280;53498;50.422;14.912;2023-02-22T07:13:05;99071.81;;;5.66;100.00
66627;BME280;53498;50.422;14.912;2023-02-22T07:15:32;99067.88;;;5.85;100.00
66627;BME280;53498;50.422;14.912;2023-02-22T07:17:59;99075.81;;;5.94;100.00
66627;BME280;53498;50.422;14.912;2023-02-22T07:20:27;99076.06;;;6.08;100.00
66627;BME280;53498;50.422;14.912;2023-02-22T07:22:53;99079.03;;;6.28;100.00
66627;BME280;53498;50.422;14.912;2023-02-22T07:25:20;99075.63;;;6.32;100.00
66627;BME280;53498;50.422;14.912;2023-02-22T07:27:46;99073.16;;;6.36;100.00
66627;BME280;53498;50.422;14.912;2023-02-22T07:30:25;99087.66;;;6.30;100.00
66627;BME280;53498;50.422;14.912;2023-02-22T07:32:55;99083.50;;;6.38;100.00
66627;BME280;53498;50.422;14.912;2023-02-22T07:35:27;99084.44;;;6.43;100.00
66627;BME280;53498;50.422;14.912;2023-02-22T07:37:53;99081.13;;;6.50;100.00
66627;BME280;53498;50.422;14.912;2023-02-22T07:40:20;99085.69;;;6.66;100.00
66627;BME280;53498;50.422;14.912;2023-02-22T07:42:57;99093.44;;;6.66;100.00
66627;BME280;53498;50.422;14.912;2023-02-22T07:45:29;99089.09;;;6.64;100.00
66627;BME280;53498;50.422;14.912;2023-02-22T07:47:55;99093.44;;;6.66;100.00
66627;BME280;53498;50.422;14.912;2023-02-22T07:50:23;99090.00;;;6.67;100.00
66627;BME280;53498;50.422;14.912;2023-02-22T07:52:51;99084.97;;;6.77;100.00
66627;BME280;53498;50.422;14.912;2023-02-22T07:55:19;99082.63;;;6.92;100.00
66627;BME280;53498;50.422;14.912;2023-02-22T07:57:55;99085.44;;;7.07;100.00
66627;BME280;53498;50.422;14.912;2023-02-22T08:00:29;99075.91;;;7.05;100.00
66627;BME280;53498;50.422;14.912;2023-02-22T08:02:57;99083.19;;;7.30;100.00
66627;BME280;53498;50.422;14.912;2023-02-22T08:05:25;99079.03;;;7.45;100.00
66627;BME280;53498;50.422;14.912;2023-02-22T08:07:51;99076.28;;;7.31;100.00
66627;BME280;53498;50.422;14.912;2023-02-22T08:10:19;99082.13;;;7.17;100.00
66627;BME280;53498;50.422;14.912;2023-02-22T08:12:45;99081.97;;;7.07;100.00
66627;BME280;53498;50.422;14.912;2023-02-22T08:15:19;99082.25;;;7.25;100.00
66627;BME280;53498;50.422;14.912;2023-02-22T08:17:45;99076.31;;;7.34;100.00
66627;BME280;53498;50.422;14.912;2023-02-22T08:20:12;99081.53;;;7.38;100.00
66627;BME280;53498;50.422;14.912;2023-02-22T08:22:38;99082.72;;;7.63;100.00
66627;BME280;53498;50.422;14.912;2023-02-22T08:25:05;99081.06;;;7.70;100.00
66627;BME280;53498;50.422;14.912;2023-02-22T08:27:30;99087.06;;;7.66;100.00
66627;BME280;53498;50.422;14.912;2023-02-22T08:29:58;99084.78;;;7.95;100.00
66627;BME280;53498;50.422;14.912;2023-02-22T08:32:24;99080.53;;;8.02;100.00
66627;BME280;53498;50.422;14.912;2023-02-22T08:34:50;99085.16;;;8.29;99.92
66627;BME280;53498;50.422;14.912;2023-02-22T08:37:16;99085.00;;;8.12;99.38
66627;BME280;53498;50.422;14.912;2023-02-22T08:39:42;99085.16;;;8.29;98.46
66627;BME280;53498;50.422;14.912;2023-02-22T08:42:08;99089.91;;;7.89;99.46
66627;BME280;53498;50.422;14.912;2023-02-22T08:44:38;99087.50;;;8.03;100.00
66627;BME280;53498;50.422;14.912;2023-02-22T08:47:05;99086.44;;;7.87;100.00
66627;BME280;53498;50.422;14.912;2023-02-22T08:49:31;99080.44;;;7.93;100.00
66627;BME280;53498;50.422;14.912;2023-02-22T08:51:57;99084.88;;;8.00;100.00
66627;BME280;53498;50.422;14.912;2023-02-22T08:54:23;99085.78;;;8.08;100.00
66627;BME280;53498;50.422;14.912;2023-02-22T08:56:49;99086.78;;;8.21;98.42
66627;BME280;53498;50.422;14.912;2023-02-22T08:59:16;99084.19;;;8.19;99.93
66627;BME280;53498;50.422;14.912;2023-02-22T09:01:41;99089.53;;;8.34;98.62
66627;BME280;53498;50.422;14.912;2023-02-22T09:04:07;99090.59;;;8.53;97.44
66627;BME280;53498;50.422;14.912;2023-02-22T09:06:34;99085.34;;;8.49;97.45
66627;BME280;53498;50.422;14.912;2023-02-22T09:09:00;99083.69;;;8.58;97.83
66627;BME280;53498;50.422;14.912;2023-02-22T09:11:25;99084.38;;;8.38;96.97
66627;BME280;53498;50.422;14.912;2023-02-22T09:13:51;99085.31;;;8.44;97.46
66627;BME280;53498;50.422;14.912;2023-02-22T09:16:16;99082.13;;;8.76;97.40
66627;BME280;53498;50.422;14.912;2023-02-22T09:18:42;99081.34;;;8.88;96.30
66627;BME280;53498;50.422;14.912;2023-02-22T09:21:07;99085.75;;;8.99;95.27
66627;BME280;53498;50.422;14.912;2023-02-22T09:23:33;99089.16;;;8.91;97.46
66627;BME280;53498;50.422;14.912;2023-02-22T09:25:59;99082.16;;;8.82;96.44
66627;BME280;53498;50.422;14.912;2023-02-22T09:28:26;99084.84;;;8.94;95.03
66627;BME280;53498;50.422;14.912;2023-02-22T09:30:51;99084.81;;;8.91;96.08
66627;BME280;53498;50.422;14.912;2023-02-22T09:33:18;99078.69;;;8.83;96.86
66627;BME280;53498;50.422;14.912;2023-02-22T09:35:46;99086.34;;;8.65;97.82
66627;BME280;53498;50.422;14.912;2023-02-22T09:38:20;99084.63;;;8.62;98.20
66627;BME280;53498;50.422;14.912;2023-02-22T09:41:19;99079.50;;;8.71;99.00
66627;BME280;53498;50.422;14.912;2023-02-22T09:43:52;99081.34;;;8.88;98.15
66627;BME280;53498;50.422;14.912;2023-02-22T09:46:39;99074.34;;;8.80;98.93
66627;BME280;53498;50.422;14.912;2023-02-22T09:49:33;99082.16;;;8.77;98.14
66627;BME280;53498;50.422;14.912;2023-02-22T09:52:32;99075.25;;;8.81;98.29
66627;BME280;53498;50.422;14.912;2023-02-22T09:55:19;99074.41;;;8.87;96.92
66627;BME280;53498;50.422;14.912;2023-02-22T09:57:50;99073.59;;;8.91;97.35
66627;BME280;53498;50.422;14.912;2023-02-22T10:00:21;99072.81;;;9.09;96.37
66627;BME280;53498;50.422;14.912;2023-02-22T10:03:23;99069.28;;;8.96;95.89
66627;BME280;53498;50.422;14.912;2023-02-22T10:06:10;99068.41;;;8.91;95.27
66627;BME280;53498;50.422;14.912;2023-02-22T10:08:37;99070.91;;;8.78;95.70
66627;BME280;53498;50.422;14.912;2023-02-22T10:16:42;99063.19;;;8.89;95.21
66627;BME280;53498;50.422;14.912;2023-02-22T10:19:31;99066.66;;;8.93;95.21
66627;BME280;53498;50.422;14.912;2023-02-22T10:24:53;99061.69;;;9.25;94.63
66627;BME280;53498;50.422;14.912;2023-02-22T10:27:23;99061.75;;;9.40;93.39
66627;BME280;53498;50.422;14.912;2023-02-22T10:29:58;99061.72;;;9.31;93.49
66627;BME280;53498;50.422;14.912;2023-02-22T10:32:42;99059.91;;;9.21;94.40
66627;BME280;53498;50.422;14.912;2023-02-22T10:35:31;99058.22;;;9.34;94.51
66627;BME280;53498;50.422;14.912;2023-02-22T10:38:05;99058.22;;;9.26;93.38
66627;BME280;53498;50.422;14.912;2023-02-22T10:40:35;99055.56;;;9.15;93.01
66627;BME280;53498;50.422;14.912;2023-02-22T10:43:03;99057.38;;;9.33;93.37
66627;BME280;53498;50.422;14.912;2023-02-22T10:45:31;99053.69;;;8.93;94.02
66627;BME280;53498;50.422;14.912;2023-02-22T10:48:00;99057.16;;;8.95;94.88
66627;BME280;53498;50.422;14.912;2023-02-22T10:50:34;99044.28;;;9.12;95.15
66627;BME280;53498;50.422;14.912;2023-02-22T10:53:01;99053.91;;;9.30;94.42
66627;BME280;53498;50.422;14.912;2023-02-22T10:55:28;99048.69;;;9.25;94.71
66627;BME280;53498;50.422;14.912;2023-02-22T10:58:07;99040.06;;;9.24;94.69
66627;BME280;53498;50.422;14.912;2023-02-22T11:00:35;99045.19;;;9.20;93.99
66627;BME280;53498;50.422;14.912;2023-02-22T11:03:18;99047.91;;;9.46;93.50
66627;BME280;53498;50.422;14.912;2023-02-22T11:05:44;99047.03;;;9.42;93.68
66627;BME280;53498;50.422;14.912;2023-02-22T11:10:45;99033.09;;;9.23;92.58
66627;BME280;53498;50.422;14.912;2023-02-22T11:13:32;99033.97;;;9.24;93.44
66627;BME280;53498;50.422;14.912;2023-02-22T11:16:17;99040.13;;;9.41;93.06
66627;BME280;53498;50.422;14.912;2023-02-22T11:18:45;99038.41;;;9.45;92.81
66627;BME280;53498;50.422;14.912;2023-02-22T11:21:12;99033.16;;;9.34;92.15
66627;BME280;53498;50.422;14.912;2023-02-22T11:23:41;99028.94;;;9.56;92.59
66627;BME280;53498;50.422;14.912;2023-02-22T11:26:10;99034.03;;;9.36;92.14
66627;BME280;53498;50.422;14.912;2023-02-22T11:28:43;99018.41;;;9.27;91.45
66627;BME280;53498;50.422;14.912;2023-02-22T11:33:50;99015.03;;;9.43;91.93
66627;BME280;53498;50.422;14.912;2023-02-22T11:38:55;99013.38;;;9.67;92.17
66627;BME280;53498;50.422;14.912;2023-02-22T11:41:42;99010.78;;;9.78;90.34
66627;BME280;53498;50.422;14.912;2023-02-22T11:46:39;99007.34;;;9.92;88.95
66627;BME280;53498;50.422;14.912;2023-02-22T11:49:09;99003.91;;;10.10;88.87
66627;BME280;53498;50.422;14.912;2023-02-22T11:57:00;98999.50;;;9.74;90.37
66627;BME280;53498;50.422;14.912;2023-02-22T12:02:52;98996.09;;;9.90;90.01
66627;BME280;53498;50.422;14.912;2023-02-22T12:05:33;98994.31;;;9.71;89.55
66627;BME280;53498;50.422;14.912;2023-02-22T12:08:14;98992.63;;;9.82;89.99
66627;BME280;53498;50.422;14.912;2023-02-22T12:11:22;98995.19;;;9.62;89.01
66627;BME280;53498;50.422;14.912;2023-02-22T12:14:04;98987.41;;;9.71;89.87
66627;BME280;53498;50.422;14.912;2023-02-22T12:16:47;98989.16;;;9.79;89.05
66627;BME280;53498;50.422;14.912;2023-02-22T12:21:53;98974.44;;;10.02;86.19
66627;BME280;53498;50.422;14.912;2023-02-22T12:24:26;98981.38;;;9.94;86.93
66627;BME280;53498;50.422;14.912;2023-02-22T12:27:07;98977.06;;;10.07;85.46
66627;BME280;53498;50.422;14.912;2023-02-22T12:29:44;98977.03;;;9.79;87.09
66627;BME280;53498;50.422;14.912;2023-02-22T12:38:16;98964.00;;;9.67;88.05
66627;BME280;53498;50.422;14.912;2023-02-22T12:46:17;98959.72;;;9.87;88.03
66627;BME280;53498;50.422;14.912;2023-02-22T12:48:48;98970.13;;;9.81;88.98
66627;BME280;53498;50.422;14.912;2023-02-22T12:51:27;98966.66;;;10.20;87.15
66627;BME280;53498;50.422;14.912;2023-02-22T12:56:56;98954.53;;;10.13;86.87
66627;BME280;53498;50.422;14.912;2023-02-22T12:59:31;98964.03;;;9.96;87.86
66627;BME280;53498;50.422;14.912;2023-02-22T13:02:22;98963.19;;;9.92;86.21
66627;BME280;53498;50.422;14.912;2023-02-22T13:04:52;98959.72;;;10.06;86.78
66627;BME280;53498;50.422;14.912;2023-02-22T13:07:39;98959.72;;;9.90;88.01
66627;BME280;53498;50.422;14.912;2023-02-22T13:10:31;98970.09;;;10.00;87.38
66627;BME280;53498;50.422;14.912;2023-02-22T13:13:26;98967.53;;;10.19;87.22
66627;BME280;53498;50.422;14.912;2023-02-22T13:16:24;98963.19;;;10.17;86.84
66627;BME280;53498;50.422;14.912;2023-02-22T13:19:25;98965.78;;;10.11;86.68
66627;BME280;53498;50.422;14.912;2023-02-22T13:21:59;98966.66;;;10.07;86.83
66627;BME280;53498;50.422;14.912;2023-02-22T13:24:35;98955.41;;;10.12;86.94
66627;BME280;53498;50.422;14.912;2023-02-22T13:30:14;98958.88;;;10.01;86.77
66627;BME280;53498;50.422;14.912;2023-02-22T13:52:23;98954.50;;;9.69;89.01
66627;BME280;53498;50.422;14.912;2023-02-22T13:54:55;98951.00;;;9.61;88.94
66627;BME280;53498;50.422;14.912;2023-02-22T13:57:29;98945.81;;;9.61;89.26
66627;BME280;53498;50.422;14.912;2023-02-22T14:03:05;98948.38;;;9.48;90.04
66627;BME280;53498;50.422;14.912;2023-02-22T14:05:47;98960.56;;;9.80;88.08
66627;BME280;53498;50.422;14.912;2023-02-22T14:10:52;98956.22;;;9.61;89.04
66627;BME280;53498;50.422;14.912;2023-02-22T14:13:24;98954.50;;;9.66;88.80
66627;BME280;53498;50.422;14.912;2023-02-22T14:18:42;98944.13;;;9.75;88.63
66627;BME280;53498;50.422;14.912;2023-02-22T14:23:51;98947.56;;;9.71;88.80
66627;BME280;53498;50.422;14.912;2023-02-22T14:28:59;98936.31;;;9.73;89.61
66627;BME280;53498;50.422;14.912;2023-02-22T14:31:28;98941.53;;;9.69;90.09
66627;BME280;53498;50.422;14.912;2023-02-22T14:34:14;98952.75;;;9.62;90.05
66627;BME280;53498;50.422;14.912;2023-02-22T14:37:01;98935.47;;;9.76;89.51
66627;BME280;53498;50.422;14.912;2023-02-22T14:39:35;98939.78;;;9.89;88.63
66627;BME280;53498;50.422;14.912;2023-02-22T14:42:04;98938.91;;;10.00;87.66
66627;BME280;53498;50.422;14.912;2023-02-22T14:44:48;98940.66;;;9.98;87.75
66627;BME280;53498;50.422;14.912;2023-02-22T14:47:41;98935.44;;;9.87;88.71
66627;BME280;53498;50.422;14.912;2023-02-22T14:50:26;98933.72;;;9.72;90.15
66627;BME280;53498;50.422;14.912;2023-02-22T14:53:03;98936.34;;;9.81;89.09
66627;BME280;53498;50.422;14.912;2023-02-22T14:55:37;98942.38;;;9.68;89.98
66627;BME280;53498;50.422;14.912;2023-02-22T14:58:13;98936.28;;;9.52;90.96
66627;BME280;53498;50.422;14.912;2023-02-22T15:00:46;98936.28;;;9.47;91.11